Time;durP1;ratioP1;P1;durP2;ratioP2;P2;SDS_P1;SDS_P2;PMS_P1;PMS_P2;Temp;Humidity;BMP_temperature;BMP_pressure;BME280_temperature;BME280_humidity;BME280_pressure;Samples;Min_cycle;Max_cycle;Signal;HPM_P1;HPM_P2
2022/11/29 10:40:57;;;;;;;54.45;25.90;;;7.30;93.20;;;;;;5103708;27;20381;-76
2022/11/29 10:43:25;;;;;;;54.45;25.67;;;7.30;91.60;;;;;;5107326;28;20017;-71
2022/11/29 10:45:54;;;;;;;58.42;26.95;;;7.70;90.10;;;;;;5091263;28;20073;-69
2022/11/29 10:48:24;;;;;;;56.85;29.00;;;8.00;87.30;;;;;;5097201;28;20044;-74
2022/11/29 10:50:57;;;;;;;57.97;28.88;;;8.40;85.50;;;;;;5091084;28;20035;-71
2022/11/29 10:53:34;;;;;;;54.95;27.90;;;8.70;83.50;;;;;;5092773;28;20062;-72
2022/11/29 10:56:29;;;;;;;47.38;25.17;;;9.00;81.50;;;;;;5089154;28;20036;-71
2022/11/29 10:59:08;;;;;;;43.53;24.40;;;9.30;80.20;;;;;;5092296;28;20036;-71
2022/11/29 11:01:44;;;;;;;43.50;24.13;;;9.60;79.70;;;;;;5104707;28;20038;-75
2022/11/29 11:04:35;;;;;;;47.25;24.35;;;9.90;78.50;;;;;;5110813;28;20051;-71
2022/11/29 11:07:03;;;;;;;46.42;23.52;;;10.10;78.00;;;;;;5108294;28;20028;-73
2022/11/29 11:09:36;;;;;;;43.83;22.10;;;10.40;76.40;;;;;;5109486;28;20074;-74
2022/11/29 11:12:12;;;;;;;43.00;22.13;;;10.50;75.30;;;;;;5109046;28;20118;-73
2022/11/29 11:14:38;;;;;;;36.95;21.00;;;10.70;74.50;;;;;;5109518;28;20376;-73
2022/11/29 11:17:31;;;;;;;42.28;22.15;;;10.80;73.80;;;;;;5108943;28;20023;-73
2022/11/29 11:20:04;;;;;;;43.45;22.08;;;11.00;73.50;;;;;;5108885;28;20482;-74
2022/11/29 11:22:32;;;;;;;46.35;23.80;;;11.10;73.20;;;;;;5109020;28;20028;-74
2022/11/29 11:25:24;;;;;;;42.22;21.17;;;11.30;72.90;;;;;;5109139;28;20386;-74
2022/11/29 11:27:50;;;;;;;43.50;22.20;;;11.40;73.40;;;;;;5108791;28;20027;-74
2022/11/29 11:30:24;;;;;;;44.88;21.77;;;11.60;72.00;;;;;;5109039;28;20023;-74
2022/11/29 11:33:06;;;;;;;43.35;23.00;;;11.70;71.40;;;;;;5107753;28;20054;-74
2022/11/29 11:35:31;;;;;;;43.28;23.98;;;11.80;71.10;;;;;;5101361;28;20025;-75
2022/11/29 11:37:57;;;;;;;47.60;23.40;;;12.00;70.70;;;;;;5080659;28;20704;-77
2022/11/29 11:40:29;;;;;;;38.53;20.85;;;12.10;70.10;;;;;;5111856;28;20055;-77
2022/11/29 11:43:00;;;;;;;38.25;21.00;;;12.10;68.30;;;;;;5112295;28;20038;-77
2022/11/29 11:45:32;;;;;;;63.08;22.52;;;12.20;68.10;;;;;;5112214;28;20066;-77
2022/11/29 11:48:19;;;;;;;33.05;19.20;;;12.30;67.30;;;;;;5111608;28;20443;-79
2022/11/29 11:50:57;;;;;;;35.42;20.80;;;12.40;67.00;;;;;;5105442;28;20035;-76
2022/11/29 11:53:38;;;;;;;34.15;19.50;;;12.40;66.30;;;;;;5079150;28;20092;-76
2022/11/29 11:56:12;;;;;;;35.90;21.75;;;12.40;66.60;;;;;;5080559;28;20027;-77
2022/11/29 11:58:39;;;;;;;39.80;21.63;;;12.50;65.80;;;;;;5098190;28;20459;-78
2022/11/29 12:01:11;;;;;;;40.58;21.45;;;12.50;65.90;;;;;;5097531;28;20042;-77
2022/11/29 12:04:20;;;;;;;50.50;21.67;;;12.50;65.30;;;;;;5097807;28;20028;-77
2022/11/29 12:07:11;;;;;;;36.70;21.10;;;12.50;65.40;;;;;;5077069;28;20035;-77
2022/11/29 12:10:05;;;;;;;35.78;18.92;;;12.50;65.40;;;;;;5074553;28;20028;-77
2022/11/29 12:12:39;;;;;;;35.45;20.17;;;12.50;65.00;;;;;;5089440;28;20028;-77
2022/11/29 12:15:19;;;;;;;33.28;19.45;;;12.50;63.80;;;;;;5098047;28;20459;-77
2022/11/29 12:17:57;;;;;;;43.00;20.88;;;12.50;64.10;;;;;;5097350;28;20051;-77
2022/11/29 12:20:41;;;;;;;40.38;20.80;;;12.40;63.90;;;;;;5097261;28;20122;-77
2022/11/29 12:23:13;;;;;;;34.58;19.27;;;12.40;65.00;;;;;;5081815;28;20028;-77
2022/11/29 12:26:16;;;;;;;30.67;17.55;;;12.40;64.30;;;;;;5104205;28;20023;-78
2022/11/29 12:28:45;;;;;;;33.38;19.38;;;12.40;64.30;;;;;;5092264;28;20036;-77
2022/11/29 12:31:33;;;;;;;32.72;18.85;;;12.40;63.70;;;;;;5089551;28;20058;-77
2022/11/29 12:34:10;;;;;;;33.72;19.00;;;12.40;63.10;;;;;;5086100;28;20063;-77
2022/11/29 12:37:09;;;;;;;35.72;18.33;;;12.40;63.20;;;;;;5115957;28;20047;-77
2022/11/29 12:39:35;;;;;;;46.40;20.65;;;12.30;62.70;;;;;;5096703;28;20056;-77
2022/11/29 12:42:20;;;;;;;37.63;19.48;;;12.30;63.30;;;;;;5097638;28;20031;-77
2022/11/29 12:44:59;;;;;;;37.72;19.25;;;12.30;63.30;;;;;;5096675;28;20456;-77
2022/11/29 12:47:48;;;;;;;40.95;18.67;;;12.30;63.50;;;;;;5097614;28;20028;-77
2022/11/29 12:50:40;;;;;;;31.52;18.13;;;12.30;63.80;;;;;;5113984;28;20031;-77
2022/11/29 12:53:24;;;;;;;35.17;17.77;;;12.40;63.40;;;;;;5117072;27;20046;-77
2022/11/29 12:55:56;;;;;;;37.80;19.00;;;12.40;63.70;;;;;;5117773;27;20467;-78
2022/11/29 12:58:49;;;;;;;35.17;18.38;;;12.40;62.80;;;;;;5117250;27;20510;-77
2022/11/29 13:01:51;;;;;;;33.17;19.35;;;12.40;62.20;;;;;;5135788;27;20023;-77
2022/11/29 13:04:49;;;;;;;30.23;17.88;;;12.40;62.20;;;;;;5065033;28;20560;-77
2022/11/29 13:07:49;;;;;;;28.98;18.08;;;12.40;62.70;;;;;;5095002;28;20024;-77
2022/11/29 13:10:35;;;;;;;34.83;19.02;;;12.40;62.90;;;;;;5113926;27;20048;-77
2022/11/29 13:13:17;;;;;;;34.85;18.83;;;12.40;62.60;;;;;;5114697;27;20016;-78
2022/11/29 13:16:19;;;;;;;41.70;19.60;;;12.40;62.10;;;;;;5135810;27;20055;-77
2022/11/29 13:19:08;;;;;;;34.05;18.58;;;12.30;62.20;;;;;;5053285;28;20423;-77
2022/11/29 13:21:59;;;;;;;32.97;18.52;;;12.30;62.20;;;;;;5070040;28;20048;-77
2022/11/29 13:24:35;;;;;;;38.78;20.27;;;12.30;62.40;;;;;;5045214;28;20135;-77
2022/11/29 13:27:12;;;;;;;34.22;19.60;;;12.20;61.80;;;;;;5063658;28;20032;-78
2022/11/29 13:29:38;;;;;;;39.42;21.58;;;12.20;62.10;;;;;;5058550;28;20036;-76
2022/11/29 13:32:06;;;;;;;34.95;19.27;;;12.20;61.60;;;;;;5071249;28;20132;-77
2022/11/29 13:34:41;;;;;;;35.22;20.08;;;12.10;61.30;;;;;;5071315;28;20036;-78
2022/11/29 13:37:31;;;;;;;33.95;19.08;;;12.00;61.30;;;;;;5056888;28;20059;-78
2022/11/29 13:40:27;;;;;;;35.10;18.70;;;12.00;61.40;;;;;;5051225;28;20056;-78
2022/11/29 13:43:16;;;;;;;36.92;20.27;;;12.00;62.00;;;;;;5051596;28;20103;-77
2022/11/29 13:46:12;;;;;;;36.33;19.38;;;11.90;62.10;;;;;;5034922;28;20033;-77
2022/11/29 13:48:49;;;;;;;42.05;22.70;;;11.90;62.30;;;;;;5042077;28;20036;-77
2022/11/29 13:51:30;;;;;;;36.45;21.17;;;11.90;61.90;;;;;;5048203;28;20150;-77
2022/11/29 13:54:02;;;;;;;42.78;22.13;;;11.90;61.80;;;;;;5064967;28;20063;-78
2022/11/29 13:56:47;;;;;;;43.95;21.13;;;11.90;61.50;;;;;;5108449;27;20050;-77
2022/11/29 13:59:26;;;;;;;41.45;21.83;;;11.90;61.60;;;;;;5116417;27;20027;-77
2022/11/29 14:01:53;;;;;;;35.67;20.00;;;11.90;61.60;;;;;;5116100;27;20482;-77
2022/11/29 14:04:43;;;;;;;40.38;21.75;;;11.90;61.30;;;;;;5116208;27;20047;-77
2022/11/29 14:07:14;;;;;;;38.17;22.13;;;11.80;61.40;;;;;;5097978;28;20036;-78
2022/11/29 14:10:00;;;;;;;40.97;21.98;;;11.80;61.60;;;;;;5093993;28;20401;-77
2022/11/29 14:12:40;;;;;;;40.38;19.70;;;11.80;61.50;;;;;;5126931;27;20092;-77
2022/11/29 14:15:27;;;;;;;34.17;19.27;;;11.80;61.10;;;;;;5134125;27;20538;-77
2022/11/29 14:17:57;;;;;;;33.65;19.42;;;11.80;61.00;;;;;;5115855;27;20031;-77
2022/11/29 14:20:27;;;;;;;33.47;20.05;;;11.70;60.90;;;;;;5134168;27;20110;-78
2022/11/29 14:23:07;;;;;;;31.80;19.42;;;11.70;61.20;;;;;;5115712;28;20031;-77
2022/11/29 14:25:35;;;;;;;39.28;20.75;;;11.70;61.50;;;;;;5101963;28;20027;-78
2022/11/29 14:28:13;;;;;;;36.40;19.70;;;11.60;61.60;;;;;;5133452;27;20037;-77
2022/11/29 14:30:47;;;;;;;37.33;19.95;;;11.60;61.20;;;;;;5110734;28;20538;-77
2022/11/29 14:33:21;;;;;;;35.33;19.42;;;11.60;61.30;;;;;;5100296;27;20046;-77
2022/11/29 14:36:25;;;;;;;32.00;17.98;;;11.60;61.50;;;;;;5115991;28;20489;-77
2022/11/29 14:39:01;;;;;;;36.35;20.00;;;11.50;61.50;;;;;;5115298;28;20100;-77
2022/11/29 14:41:55;;;;;;;37.45;20.10;;;11.50;61.00;;;;;;5115499;28;20053;-78
2022/11/29 14:44:27;;;;;;;32.80;18.33;;;11.40;60.80;;;;;;5094998;28;20020;-77
2022/11/29 14:47:32;;;;;;;32.35;18.38;;;11.40;61.30;;;;;;5105921;28;20027;-77
2022/11/29 14:50:00;;;;;;;53.58;20.77;;;11.30;61.50;;;;;;5114749;28;20126;-77
2022/11/29 14:52:50;;;;;;;34.83;20.17;;;11.20;61.80;;;;;;5134302;28;20023;-76
2022/11/29 14:55:16;;;;;;;34.58;19.83;;;11.20;61.60;;;;;;5084200;28;20089;-77
2022/11/29 14:58:00;;;;;;;35.35;20.27;;;11.10;61.60;;;;;;5120017;28;20023;-77
2022/11/29 15:00:42;;;;;;;36.58;19.70;;;11.10;61.90;;;;;;5115163;28;20031;-77
2022/11/29 15:03:11;;;;;;;39.33;22.02;;;11.00;62.20;;;;;;5133959;28;20023;-77
2022/11/29 15:05:45;;;;;;;34.72;21.23;;;11.00;62.10;;;;;;5115428;28;20160;-77
2022/11/29 15:08:24;;;;;;;43.42;22.73;;;10.90;62.10;;;;;;5115754;28;20463;-77
2022/11/29 15:11:03;;;;;;;43.40;24.95;;;10.90;62.00;;;;;;5115111;28;20035;-77
2022/11/29 15:13:32;;;;;;;48.17;25.73;;;10.80;62.20;;;;;;5114894;28;20023;-77
2022/11/29 15:16:23;;;;;;;41.15;23.63;;;10.80;62.20;;;;;;5115562;28;20136;-78
2022/11/29 15:19:16;;;;;;;40.15;22.42;;;10.80;62.20;;;;;;5114512;28;20027;-77
2022/11/29 15:21:42;;;;;;;41.60;23.63;;;10.80;62.40;;;;;;5091624;28;20396;-77
2022/11/29 15:24:14;;;;;;;46.17;24.05;;;10.80;62.50;;;;;;5092513;28;20054;-77
2022/11/29 15:26:57;;;;;;;42.55;22.35;;;10.80;62.30;;;;;;5117275;27;20521;-77
2022/11/29 15:29:24;;;;;;;43.95;22.55;;;10.70;62.10;;;;;;5137677;27;20055;-77
2022/11/29 15:31:58;;;;;;;44.30;24.17;;;10.80;62.30;;;;;;5119014;27;20020;-77
2022/11/29 15:34:32;;;;;;;42.03;23.13;;;10.70;62.90;;;;;;5119263;27;20114;-77
2022/11/29 15:36:59;;;;;;;44.20;22.85;;;10.80;62.10;;;;;;5118858;27;20030;-77
2022/11/29 15:39:31;;;;;;;40.70;22.38;;;10.80;62.10;;;;;;5114924;28;20066;-78
2022/11/29 15:42:15;;;;;;;40.80;21.02;;;10.80;62.20;;;;;;5107839;28;20056;-77
2022/11/29 15:44:45;;;;;;;39.72;21.50;;;10.80;62.30;;;;;;5098569;28;20031;-77
2022/11/29 15:47:23;;;;;;;45.47;23.58;;;10.80;62.20;;;;;;5115281;28;20035;-77
2022/11/29 15:49:50;;;;;;;44.85;23.50;;;10.80;61.60;;;;;;5116796;28;20073;-77
2022/11/29 15:52:36;;;;;;;43.90;23.05;;;10.80;61.80;;;;;;5115708;28;20070;-77
2022/11/29 15:55:06;;;;;;;43.30;22.38;;;10.80;61.80;;;;;;5115404;28;20382;-77
2022/11/29 15:57:39;;;;;;;47.55;25.13;;;10.80;61.50;;;;;;5115707;28;20383;-77
2022/11/29 16:00:10;;;;;;;44.85;23.27;;;10.80;60.90;;;;;;5112341;28;20032;-77
2022/11/29 16:02:44;;;;;;;39.80;21.90;;;10.80;60.90;;;;;;5095704;28;20075;-77
2022/11/29 16:05:24;;;;;;;38.95;21.45;;;10.80;60.90;;;;;;5097745;28;20020;-78
2022/11/29 16:07:54;;;;;;;36.40;20.73;;;10.80;61.10;;;;;;5114979;28;20030;-77
2022/11/29 16:10:24;;;;;;;43.72;21.90;;;10.80;61.00;;;;;;5114707;28;20073;-77
2022/11/29 16:13:03;;;;;;;39.70;20.75;;;10.80;60.40;;;;;;5097410;28;20023;-77
2022/11/29 16:15:42;;;;;;;36.47;21.10;;;10.70;60.30;;;;;;5098003;28;20024;-77
2022/11/29 16:18:15;;;;;;;39.65;22.73;;;10.70;59.90;;;;;;5116086;28;20379;-77
2022/11/29 16:20:41;;;;;;;36.30;20.87;;;10.70;59.80;;;;;;5097605;28;20035;-77
2022/11/29 16:23:13;;;;;;;40.83;22.30;;;10.60;59.60;;;;;;5097760;28;20277;-77
2022/11/29 16:26:14;;;;;;;39.88;21.85;;;10.50;59.60;;;;;;5097190;28;20027;-76
2022/11/29 16:28:43;;;;;;;44.22;23.10;;;10.40;59.80;;;;;;5075282;28;20071;-77
2022/11/29 16:31:18;;;;;;;42.80;22.63;;;10.30;59.90;;;;;;5070406;28;20032;-77
2022/11/29 16:33:46;;;;;;;41.15;21.92;;;10.20;60.30;;;;;;5097450;28;20429;-77
2022/11/29 16:36:25;;;;;;;37.97;22.13;;;10.00;60.60;;;;;;5096936;28;20030;-77
2022/11/29 16:39:15;;;;;;;37.03;21.27;;;9.90;60.80;;;;;;5114954;28;20564;-77
2022/11/29 16:41:41;;;;;;;38.88;20.95;;;9.80;61.20;;;;;;5104317;28;20552;-77
2022/11/29 16:44:36;;;;;;;53.22;30.80;;;9.80;61.60;;;;;;5116050;28;20023;-77
2022/11/29 16:47:15;;;;;;;43.22;24.15;;;9.70;62.10;;;;;;5086241;28;20050;-78
2022/11/29 16:49:41;;;;;;;43.08;23.35;;;9.60;62.20;;;;;;5097472;28;20081;-77
2022/11/29 16:52:25;;;;;;;35.88;20.73;;;9.50;62.30;;;;;;5096378;28;20024;-77
2022/11/29 16:54:51;;;;;;;32.45;19.05;;;9.50;62.70;;;;;;5097329;28;20020;-77
2022/11/29 16:57:18;;;;;;;37.45;18.92;;;9.50;63.00;;;;;;5096081;28;20035;-77
2022/11/29 16:59:45;;;;;;;37.08;20.50;;;9.40;63.00;;;;;;5115177;28;20089;-77
2022/11/29 17:02:13;;;;;;;32.90;18.10;;;9.40;63.20;;;;;;5096544;28;20020;-78
2022/11/29 17:04:38;;;;;;;36.38;21.38;;;9.30;63.30;;;;;;5114877;28;20107;-77
2022/11/29 17:07:14;;;;;;;39.28;21.70;;;9.30;63.50;;;;;;5096517;28;20585;-77
2022/11/29 17:09:40;;;;;;;33.67;19.10;;;9.20;63.60;;;;;;5115416;28;20035;-77
2022/11/29 17:12:11;;;;;;;33.65;19.55;;;9.10;63.80;;;;;;5096553;28;20035;-77
2022/11/29 17:14:37;;;;;;;42.15;21.25;;;9.10;63.90;;;;;;5096902;28;20505;-77
2022/11/29 17:17:04;;;;;;;32.97;19.25;;;9.10;64.10;;;;;;5096667;28;20166;-78
2022/11/29 17:19:30;;;;;;;37.00;20.50;;;9.10;64.20;;;;;;5104481;28;20090;-76
2022/11/29 17:22:02;;;;;;;40.63;20.98;;;9.00;64.40;;;;;;5093037;28;20050;-78
2022/11/29 17:24:28;;;;;;;35.33;20.35;;;9.00;64.60;;;;;;5076608;28;20022;-76
2022/11/29 17:26:55;;;;;;;43.20;22.13;;;8.90;64.60;;;;;;5093615;28;20103;-77
2022/11/29 17:29:21;;;;;;;55.70;29.50;;;8.90;64.80;;;;;;5077040;28;20040;-77
2022/11/29 17:31:49;;;;;;;43.67;25.60;;;8.90;65.00;;;;;;5077260;28;20535;-77
2022/11/29 17:34:15;;;;;;;43.50;22.45;;;8.80;65.00;;;;;;5093506;28;20024;-77
2022/11/29 17:36:41;;;;;;;37.10;21.17;;;8.80;65.10;;;;;;5082811;28;20035;-76
2022/11/29 17:39:08;;;;;;;37.20;22.10;;;8.80;65.20;;;;;;5102118;28;20414;-77
2022/11/29 17:41:35;;;;;;;42.75;23.80;;;8.70;65.30;;;;;;5102224;28;20020;-77
2022/11/29 17:44:01;;;;;;;39.70;22.67;;;8.70;65.40;;;;;;5082521;28;20111;-77
2022/11/29 17:46:35;;;;;;;34.17;19.33;;;8.70;65.50;;;;;;5087253;28;20463;-76
2022/11/29 17:49:03;;;;;;;;;;;8.70;65.70;;;;;;5093218;28;20117;-76
2022/11/29 17:51:29;;;;;;;35.40;20.27;;;8.70;65.70;;;;;;5085268;28;19912;-78
2022/11/29 17:53:59;;;;;;;34.55;20.38;;;8.70;65.50;;;;;;5101329;28;20024;-78
2022/11/29 17:56:25;;;;;;;34.03;20.15;;;8.70;65.50;;;;;;5107018;28;20574;-78
2022/11/29 17:58:53;;;;;;;32.88;18.98;;;8.60;65.00;;;;;;5086867;28;20031;-77
2022/11/29 18:01:22;;;;;;;34.50;19.17;;;8.70;65.20;;;;;;5102865;28;20046;-79
2022/11/29 18:03:53;;;;;;;32.22;18.00;;;8.70;65.00;;;;;;5084443;28;20019;-77
2022/11/29 18:06:22;;;;;;;34.85;19.45;;;8.70;65.10;;;;;;5099763;28;20495;-78
2022/11/29 18:08:52;;;;;;;28.52;16.10;;;8.70;65.00;;;;;;5083894;28;20020;-78
2022/11/29 18:11:22;;;;;;;28.15;16.00;;;8.70;65.00;;;;;;5089224;28;20166;-78
2022/11/29 18:13:49;;;;;;;30.85;18.23;;;8.70;65.00;;;;;;5083427;28;20031;-79
2022/11/29 18:16:18;;;;;;;30.92;18.13;;;8.70;65.00;;;;;;5101298;28;20403;-78
2022/11/29 18:18:45;;;;;;;29.23;17.52;;;8.70;65.00;;;;;;5083023;28;20166;-77
2022/11/29 18:21:12;;;;;;;26.83;16.40;;;8.70;65.00;;;;;;5087373;28;20039;-77
2022/11/29 18:23:41;;;;;;;29.83;17.42;;;8.70;65.00;;;;;;5082877;28;20035;-78
2022/11/29 18:26:12;;;;;;;31.52;18.55;;;8.70;65.00;;;;;;5102049;28;20027;-77
2022/11/29 18:28:40;;;;;;;31.17;17.08;;;8.60;65.00;;;;;;5105495;28;20027;-78
2022/11/29 18:31:21;;;;;;;35.17;19.45;;;8.60;65.00;;;;;;5099578;28;20031;-77
2022/11/29 18:33:51;;;;;;;32.13;18.73;;;8.60;65.10;;;;;;5099642;28;20081;-77
2022/11/29 18:36:20;;;;;;;39.95;21.25;;;8.60;65.10;;;;;;5103257;28;20024;-77
2022/11/29 18:38:47;;;;;;;32.90;18.63;;;8.60;65.10;;;;;;5092040;28;20064;-77
2022/11/29 18:41:16;;;;;;;30.95;18.77;;;8.60;65.10;;;;;;5082706;28;20051;-77
2022/11/29 18:43:43;;;;;;;30.27;17.40;;;8.50;65.10;;;;;;5075216;28;20119;-77
2022/11/29 18:46:16;;;;;;;32.63;18.13;;;8.50;65.20;;;;;;5091722;28;20062;-77
2022/11/29 18:48:44;;;;;;;31.02;18.00;;;8.50;65.20;;;;;;5091961;28;20032;-78
2022/11/29 18:51:16;;;;;;;32.70;18.98;;;8.50;65.20;;;;;;5097897;28;20054;-77
2022/11/29 18:53:43;;;;;;;32.53;18.27;;;8.50;65.10;;;;;;5073998;28;20036;-77
2022/11/29 18:56:18;;;;;;;31.70;17.23;;;8.50;65.20;;;;;;5075913;28;20020;-77
2022/11/29 18:58:46;;;;;;;33.53;19.05;;;8.40;65.20;;;;;;5074492;28;20052;-76
2022/11/29 19:01:17;;;;;;;31.25;18.15;;;8.40;65.20;;;;;;5073036;28;20082;-77
2022/11/29 19:03:49;;;;;;;32.30;18.70;;;8.40;65.20;;;;;;5078891;28;20160;-77
2022/11/29 19:06:18;;;;;;;34.88;20.15;;;8.40;65.30;;;;;;5080848;28;20070;-77
2022/11/29 19:08:44;;;;;;;35.17;20.10;;;8.30;65.30;;;;;;5107607;28;20024;-77
2022/11/29 19:11:21;;;;;;;33.83;20.13;;;8.30;65.30;;;;;;5079040;28;20038;-77
2022/11/29 19:14:04;;;;;;;35.90;21.10;;;8.20;65.30;;;;;;5092463;28;20050;-77
2022/11/29 19:16:33;;;;;;;35.35;21.25;;;8.20;65.30;;;;;;5078802;28;20123;-77
2022/11/29 19:19:00;;;;;;;39.28;23.25;;;8.20;65.30;;;;;;5095863;28;20038;-77
2022/11/29 19:21:30;;;;;;;39.22;22.65;;;8.10;65.20;;;;;;5094403;28;20379;-78
2022/11/29 19:23:59;;;;;;;35.45;20.27;;;8.10;65.20;;;;;;5066885;28;20111;-78
2022/11/29 19:26:28;;;;;;;40.08;19.55;;;8.00;65.20;;;;;;5068609;28;20078;-78
2022/11/29 19:28:56;;;;;;;29.70;17.60;;;8.00;65.20;;;;;;5077629;28;20108;-76
2022/11/29 19:31:25;;;;;;;31.65;18.33;;;7.90;65.30;;;;;;5079270;28;20047;-79
2022/11/29 19:33:54;;;;;;;31.52;18.38;;;7.90;65.30;;;;;;5110386;28;20023;-77
2022/11/29 19:36:23;;;;;;;30.45;17.60;;;7.80;65.40;;;;;;5077385;28;20062;-77
2022/11/29 19:38:51;;;;;;;33.72;19.08;;;7.70;65.40;;;;;;5095217;28;20032;-77
2022/11/29 19:41:20;;;;;;;36.83;21.10;;;7.60;65.50;;;;;;5077440;28;20387;-77
2022/11/29 19:43:48;;;;;;;36.60;20.27;;;7.60;65.60;;;;;;5095271;28;20062;-77
2022/11/29 19:46:32;;;;;;;36.17;19.77;;;7.50;65.60;;;;;;5078969;28;20054;-77
2022/11/29 19:48:58;;;;;;;37.58;19.65;;;7.40;65.70;;;;;;5077477;28;20367;-77
2022/11/29 19:51:26;;;;;;;37.05;19.38;;;7.40;65.80;;;;;;5079997;28;20043;-77
2022/11/29 19:53:58;;;;;;;31.35;18.20;;;7.30;65.90;;;;;;5079728;28;20494;-77
2022/11/29 19:56:28;;;;;;;31.52;18.25;;;7.20;66.00;;;;;;5100704;28;20107;-77
2022/11/29 19:58:54;;;;;;;38.33;20.52;;;7.20;66.00;;;;;;5079910;28;20105;-78
2022/11/29 20:01:23;;;;;;;35.63;20.13;;;7.10;66.10;;;;;;5083178;28;20426;-73
2022/11/29 20:03:51;;;;;;;36.95;20.73;;;7.00;66.20;;;;;;5075143;28;20081;-73
2022/11/29 20:06:19;;;;;;;36.22;19.80;;;7.00;66.40;;;;;;5100130;28;20035;-73
2022/11/29 20:08:45;;;;;;;31.17;18.77;;;6.90;66.50;;;;;;5094617;28;20016;-72
2022/11/29 20:11:19;;;;;;;40.38;20.35;;;6.90;66.50;;;;;;5102102;28;20032;-75
2022/11/29 20:13:50;;;;;;;32.80;18.60;;;6.80;66.80;;;;;;5079096;28;20016;-74
2022/11/29 20:16:18;;;;;;;33.22;17.70;;;6.80;67.10;;;;;;5081468;28;20019;-75
2022/11/29 20:18:48;;;;;;;35.90;18.38;;;6.70;67.20;;;;;;5097646;28;20030;-75
2022/11/29 20:21:46;;;;;;;32.33;17.98;;;6.70;67.30;;;;;;5108010;28;20515;-74
2022/11/29 20:24:15;;;;;;;30.83;17.30;;;6.70;67.40;;;;;;5057078;28;20193;-74
2022/11/29 20:26:45;;;;;;;35.65;18.85;;;6.60;67.30;;;;;;5079060;28;20028;-75
2022/11/29 20:29:12;;;;;;;39.00;22.02;;;6.60;67.40;;;;;;5097724;28;20046;-75
2022/11/29 20:31:40;;;;;;;34.58;19.88;;;6.50;67.50;;;;;;5097152;28;20030;-75
2022/11/29 20:34:09;;;;;;;32.03;17.95;;;6.50;67.60;;;;;;5088403;28;20035;-75
